createdAt,value
2019-03-12T00:01:51.096Z,13.57
2019-03-12T00:04:21.571Z,13.51
2019-03-12T00:06:52.069Z,13.53
2019-03-12T00:09:22.672Z,13.44
2019-03-12T00:11:53.128Z,13.35
2019-03-12T00:14:23.583Z,13.26
2019-03-12T00:16:54.066Z,13.25
2019-03-12T00:19:24.516Z,13.06
2019-03-12T00:21:55.005Z,12.95
2019-03-12T00:24:25.554Z,13.00
2019-03-12T00:26:56.055Z,12.83
2019-03-12T00:29:26.514Z,12.85
2019-03-12T00:31:57.003Z,12.92
2019-03-12T00:34:27.447Z,12.80
2019-03-12T00:36:58.007Z,12.82
2019-03-12T00:39:28.464Z,12.81
2019-03-12T00:41:58.952Z,12.86
2019-03-12T00:44:29.428Z,12.78
2019-03-12T00:46:59.984Z,12.88
2019-03-12T00:49:30.465Z,12.63
2019-03-12T00:52:00.915Z,12.62
2019-03-12T00:54:31.403Z,12.64
2019-03-12T00:57:01.868Z,12.63
2019-03-12T00:59:32.374Z,12.60
2019-03-12T01:02:02.825Z,12.54
2019-03-12T01:04:33.329Z,12.46
2019-03-12T01:07:03.784Z,12.57
2019-03-12T01:09:34.271Z,12.48
2019-03-12T01:12:04.823Z,12.48
2019-03-12T01:14:35.307Z,12.35
2019-03-12T01:17:05.860Z,12.27
2019-03-12T01:19:36.348Z,12.14
2019-03-12T01:22:06.910Z,12.08
2019-03-12T01:24:37.398Z,12.01
2019-03-12T01:27:07.843Z,11.92
2019-03-12T01:29:38.333Z,11.88
2019-03-12T01:32:08.790Z,11.91
2019-03-12T01:34:39.278Z,11.92
2019-03-12T01:37:09.730Z,11.87
2019-03-12T01:39:40.171Z,11.79
2019-03-12T01:42:10.672Z,11.85
2019-03-12T01:44:41.158Z,11.82
2019-03-12T01:47:11.616Z,11.84
2019-03-12T01:49:42.100Z,11.83
2019-03-12T01:52:12.554Z,11.88
2019-03-12T01:54:43.012Z,11.83
2019-03-12T01:57:13.504Z,11.77
2019-03-12T01:59:43.953Z,11.88
2019-03-12T02:02:14.548Z,11.93
2019-03-12T02:04:45.007Z,11.97
2019-03-12T02:07:15.500Z,11.90
2019-03-12T02:09:46.004Z,11.78
2019-03-12T02:12:16.458Z,11.62
2019-03-12T02:14:46.945Z,11.49
2019-03-12T02:17:17.386Z,11.64
2019-03-12T02:19:47.867Z,11.64
2019-03-12T02:22:18.353Z,11.51
2019-03-12T02:24:53.063Z,10.84
2019-03-12T02:27:21.128Z,11.47
2019-03-12T02:29:51.680Z,11.36
2019-03-12T02:32:22.137Z,11.42
2019-03-12T02:34:52.627Z,11.27
2019-03-12T02:37:23.103Z,11.17
2019-03-12T02:39:53.552Z,11.12
2019-03-12T02:42:24.037Z,11.09
2019-03-12T02:44:54.483Z,11.13
2019-03-12T02:47:24.978Z,11.13
2019-03-12T02:49:55.456Z,11.11
2019-03-12T02:52:25.908Z,11.04
2019-03-12T02:54:56.400Z,10.99
2019-03-12T02:57:26.893Z,10.88
2019-03-12T02:59:57.351Z,10.79
2019-03-12T03:02:27.809Z,10.82
2019-03-12T03:04:58.407Z,10.23
2019-03-12T03:07:46.192Z,10.68
2019-03-12T03:10:16.649Z,10.63
2019-03-12T03:12:47.249Z,10.45
2019-03-12T03:15:19.690Z,10.44
2019-03-12T03:17:50.283Z,10.60
2019-03-12T03:20:20.776Z,10.55
2019-03-12T03:22:51.342Z,10.55
2019-03-12T03:25:22.035Z,10.23
2019-03-12T03:27:52.517Z,10.31
2019-03-12T03:30:24.256Z,10.34
2019-03-12T03:32:54.844Z,10.38
2019-03-12T03:35:25.293Z,10.21
2019-03-12T03:37:55.790Z,10.26
2019-03-12T03:40:26.247Z,10.24
2019-03-12T03:42:56.753Z,10.22
2019-03-12T03:45:27.309Z,10.03
2019-03-12T03:47:57.905Z,10.14
2019-03-12T03:50:28.392Z,10.16
2019-03-12T03:52:58.842Z,10.12
2019-03-12T03:55:29.295Z,10.10
2019-03-12T03:57:59.997Z,9.91
2019-03-12T04:00:30.525Z,9.85
2019-03-12T04:03:00.985Z,9.89
2019-03-12T04:05:31.424Z,9.78
2019-03-12T04:08:01.906Z,9.82
2019-03-12T04:10:32.436Z,9.83
2019-03-12T04:13:02.937Z,9.75
2019-03-12T04:15:33.404Z,9.78
2019-03-12T04:18:03.889Z,9.73
2019-03-12T04:20:34.455Z,9.74
2019-03-12T04:23:04.919Z,9.60
2019-03-12T04:25:35.383Z,9.64
2019-03-12T04:28:05.854Z,9.55
2019-03-12T04:30:36.304Z,9.52
2019-03-12T04:33:08.234Z,9.64
2019-03-12T04:35:38.672Z,9.54
2019-03-12T04:38:09.168Z,9.48
2019-03-12T04:40:39.610Z,9.57
2019-03-12T04:43:10.105Z,9.44
2019-03-12T04:45:40.539Z,9.49
2019-03-12T04:48:11.031Z,9.52
2019-03-12T04:50:41.521Z,9.61
2019-03-12T04:53:11.995Z,9.45
2019-03-12T04:55:42.471Z,9.57
2019-03-12T04:58:12.961Z,9.52
2019-03-12T05:00:43.467Z,9.40
2019-03-12T05:03:13.902Z,9.35
2019-03-12T05:05:44.351Z,9.33
2019-03-12T05:08:14.879Z,9.40
2019-03-12T05:10:45.409Z,9.32
2019-03-12T05:13:15.908Z,9.34
2019-03-12T05:15:46.361Z,9.44
2019-03-12T05:18:16.936Z,9.42
2019-03-12T05:20:47.523Z,9.28
2019-03-12T05:23:17.974Z,9.31
2019-03-12T05:25:48.429Z,9.31
2019-03-12T05:28:18.919Z,9.31
2019-03-12T05:30:49.491Z,9.28
2019-03-12T05:33:20.010Z,9.27
2019-03-12T05:35:50.442Z,9.19
2019-03-12T05:38:20.885Z,9.20
2019-03-12T05:40:51.366Z,9.07
2019-03-12T05:43:21.932Z,9.07
2019-03-12T05:45:52.392Z,9.09
2019-03-12T05:48:22.884Z,8.92
2019-03-12T05:50:53.379Z,8.97
2019-03-12T05:53:28.970Z,8.89
2019-03-12T05:55:59.463Z,9.03
2019-03-12T05:58:29.902Z,8.80
2019-03-12T06:01:00.395Z,8.88
2019-03-12T06:03:30.893Z,8.99
2019-03-12T06:06:01.347Z,8.92
2019-03-12T06:08:31.835Z,8.92
2019-03-12T06:11:02.348Z,8.81
2019-03-12T06:13:32.809Z,8.84
2019-03-12T06:16:03.378Z,8.93
2019-03-12T06:18:33.828Z,8.90
2019-03-12T06:21:04.294Z,8.94
2019-03-12T06:23:34.894Z,8.95
2019-03-12T06:26:05.459Z,8.93
2019-03-12T06:28:36.168Z,8.97
2019-03-12T06:31:23.578Z,8.74
2019-03-12T06:34:15.299Z,8.79
2019-03-12T06:37:16.906Z,8.69
2019-03-12T06:40:03.789Z,8.69
2019-03-12T06:42:59.269Z,8.78
2019-03-12T06:45:38.538Z,8.76
2019-03-12T06:48:27.871Z,8.73
2019-03-12T06:51:14.565Z,8.73
2019-03-12T06:54:06.428Z,8.67
2019-03-12T06:57:04.980Z,8.59
2019-03-12T07:00:01.482Z,8.54
2019-03-12T07:02:48.920Z,8.70
2019-03-12T07:05:31.470Z,8.68
2019-03-12T07:08:14.125Z,8.72
2019-03-12T07:11:08.906Z,8.78
2019-03-12T07:14:04.082Z,8.84
2019-03-12T07:16:56.475Z,8.77
2019-03-12T07:20:03.867Z,8.78
2019-03-12T07:22:56.101Z,8.72
2019-03-12T07:25:51.427Z,8.81
2019-03-12T07:28:35.770Z,8.95
2019-03-12T07:31:31.082Z,8.80
2019-03-12T07:34:37.042Z,8.83
2019-03-12T07:37:44.442Z,8.89
2019-03-12T07:40:32.430Z,8.83
2019-03-12T07:43:11.886Z,8.87
2019-03-12T07:45:48.420Z,8.92
2019-03-12T07:48:32.538Z,8.97
2019-03-12T07:51:30.686Z,9.14
2019-03-12T07:54:17.522Z,8.97
2019-03-12T07:57:06.766Z,9.03
2019-03-12T07:59:58.997Z,9.18
2019-03-12T08:02:40.905Z,9.20
2019-03-12T08:05:48.446Z,9.36
2019-03-12T08:08:35.838Z,9.41
2019-03-12T08:11:37.041Z,9.34
2019-03-12T08:14:15.534Z,9.31
2019-03-12T08:17:03.461Z,9.39
2019-03-12T08:19:51.565Z,9.36
2019-03-12T08:22:41.015Z,9.40
2019-03-12T08:25:26.176Z,9.34
2019-03-12T08:28:21.362Z,9.42
2019-03-12T08:31:06.403Z,9.37
2019-03-12T08:33:58.964Z,9.35
2019-03-12T08:37:00.515Z,9.30
2019-03-12T08:39:48.290Z,9.48
2019-03-12T08:42:54.410Z,9.45
2019-03-12T08:45:54.125Z,9.44
2019-03-12T08:48:49.604Z,9.41
2019-03-12T08:51:41.201Z,9.53
2019-03-12T08:54:30.524Z,9.49
2019-03-12T08:57:31.751Z,9.53
2019-03-12T09:00:23.898Z,9.45
2019-03-12T09:03:12.237Z,9.67
2019-03-12T09:05:50.992Z,9.72
2019-03-12T09:08:31.752Z,9.71
2019-03-12T09:11:10.755Z,9.66
2019-03-12T09:14:00.051Z,9.82
2019-03-12T09:16:52.188Z,9.94
2019-03-12T09:19:41.480Z,9.80
2019-03-12T09:22:25.290Z,9.85
2019-03-12T09:25:27.229Z,10.10
2019-03-12T09:28:35.742Z,10.28
2019-03-12T09:31:37.161Z,10.24
2019-03-12T09:34:29.288Z,10.44
2019-03-12T09:37:29.050Z,10.47
2019-03-12T09:40:13.548Z,10.48
2019-03-12T09:43:08.844Z,10.72
2019-03-12T09:46:04.119Z,10.69
2019-03-12T09:48:47.954Z,10.50
2019-03-12T09:51:46.494Z,10.54
2019-03-12T09:54:34.254Z,10.72
2019-03-12T09:57:17.177Z,10.68
2019-03-12T10:00:15.427Z,10.79
2019-03-12T10:03:14.128Z,10.72
2019-03-12T10:06:02.132Z,10.80
2019-03-12T10:09:06.632Z,10.80
2019-03-12T10:12:01.893Z,10.67
2019-03-12T10:15:09.668Z,10.83
2019-03-12T10:17:57.217Z,10.72
2019-03-12T10:20:52.265Z,10.62
2019-03-12T10:23:40.998Z,10.68
2019-03-12T10:26:39.268Z,10.67
2019-03-12T10:29:16.279Z,10.59
2019-03-12T10:31:58.836Z,10.71
2019-03-12T10:34:35.547Z,10.67
2019-03-12T10:37:25.047Z,10.54
2019-03-12T10:40:19.956Z,10.66
2019-03-12T10:43:15.348Z,10.80
2019-03-12T10:45:57.375Z,10.92
2019-03-12T10:48:28.641Z,11.02
2019-03-12T10:50:59.223Z,11.19
2019-03-12T10:53:29.745Z,11.16
2019-03-12T10:56:00.259Z,11.10
2019-03-12T10:58:30.770Z,11.16
2019-03-12T11:01:01.664Z,11.04
2019-03-12T11:03:32.263Z,11.04
2019-03-12T11:06:03.028Z,11.04
2019-03-12T11:08:33.573Z,11.08
2019-03-12T11:11:08.702Z,11.17
2019-03-12T11:13:39.273Z,11.17
2019-03-12T11:16:09.976Z,11.30
2019-03-12T11:18:40.453Z,11.41
2019-03-12T11:21:10.920Z,11.35
2019-03-12T11:23:41.491Z,11.46
2019-03-12T11:26:11.949Z,11.58
2019-03-12T11:28:42.762Z,11.44
2019-03-12T11:31:13.280Z,11.59
2019-03-12T11:33:43.817Z,11.65
2019-03-12T11:36:14.423Z,11.70
2019-03-12T11:38:45.341Z,11.77
2019-03-12T11:41:18.902Z,11.61
2019-03-12T11:43:49.434Z,11.41
2019-03-12T11:46:19.977Z,11.29
2019-03-12T11:48:50.443Z,11.14
2019-03-12T11:51:20.950Z,11.33
2019-03-12T11:53:51.408Z,11.24
2019-03-12T11:56:21.941Z,11.29
2019-03-12T11:58:52.402Z,11.14
2019-03-12T12:01:22.958Z,10.93
2019-03-12T12:03:53.522Z,10.95
2019-03-12T12:06:24.398Z,10.89
2019-03-12T12:08:55.913Z,10.50
2019-03-12T12:11:26.548Z,10.59
2019-03-12T12:13:57.269Z,10.68
2019-03-12T12:16:27.873Z,10.63
2019-03-12T12:18:58.481Z,10.67
2019-03-12T12:21:30.419Z,10.59
2019-03-12T12:24:00.914Z,10.45
2019-03-12T12:26:32.739Z,10.25
2019-03-12T12:29:03.259Z,10.13
2019-03-12T12:31:33.750Z,10.38
2019-03-12T12:34:04.470Z,10.30
2019-03-12T12:36:34.961Z,10.28
2019-03-12T12:39:07.196Z,10.33
2019-03-12T12:41:37.669Z,10.56
2019-03-12T12:44:08.155Z,10.53
2019-03-12T12:46:38.676Z,10.59
2019-03-12T12:49:10.152Z,10.72
2019-03-12T12:51:40.789Z,10.86
2019-03-12T12:54:11.326Z,10.79
2019-03-12T12:56:41.884Z,10.64
2019-03-12T12:59:12.409Z,10.54
2019-03-12T13:01:43.084Z,10.51
2019-03-12T13:04:13.617Z,10.39
2019-03-12T13:06:44.099Z,10.38
2019-03-12T13:09:14.900Z,10.08
2019-03-12T13:11:45.376Z,9.96
2019-03-12T13:14:16.043Z,9.91
2019-03-12T13:16:47.498Z,9.68
2019-03-12T13:19:18.041Z,9.72
2019-03-12T13:21:48.511Z,9.62
2019-03-12T13:24:19.054Z,9.49
2019-03-12T13:26:49.587Z,9.37
2019-03-12T13:29:20.129Z,9.40
2019-03-12T13:31:50.742Z,9.42
2019-03-12T13:34:21.189Z,9.45
2019-03-12T13:36:51.774Z,9.44
2019-03-12T13:39:22.314Z,9.48
2019-03-12T13:41:52.881Z,9.51
2019-03-12T13:44:23.437Z,9.61
2019-03-12T13:46:53.998Z,9.64
2019-03-12T13:49:24.502Z,9.62
2019-03-12T13:51:54.964Z,9.61
2019-03-12T13:54:25.584Z,9.58
2019-03-12T13:56:56.173Z,9.43
2019-03-12T13:59:27.740Z,9.40
2019-03-12T14:01:58.289Z,9.43
2019-03-12T14:04:28.850Z,9.37
2019-03-12T14:06:59.435Z,8.59
2019-03-12T14:09:30.173Z,9.28
2019-03-12T14:12:00.635Z,9.33
2019-03-12T14:14:31.245Z,9.43
2019-03-12T14:17:01.706Z,9.40
2019-03-12T14:19:32.319Z,9.44
2019-03-12T14:22:05.578Z,9.48
2019-03-12T14:24:36.647Z,9.44
2019-03-12T14:27:07.128Z,9.45
2019-03-12T14:29:37.823Z,9.54
2019-03-12T14:32:08.419Z,9.61
2019-03-12T14:34:38.914Z,9.70
2019-03-12T14:37:09.431Z,9.76
2019-03-12T14:39:40.002Z,9.10
2019-03-12T14:42:10.512Z,9.82
2019-03-12T14:44:41.006Z,9.88
2019-03-12T14:47:11.490Z,9.84
2019-03-12T14:49:42.084Z,9.88
2019-03-12T14:52:22.797Z,9.92
2019-03-12T14:54:53.319Z,9.94
2019-03-12T14:57:24.231Z,9.84
2019-03-12T14:59:54.751Z,9.90
2019-03-12T15:02:25.383Z,9.94
2019-03-12T15:04:55.861Z,9.96
2019-03-12T15:07:26.589Z,9.98
2019-03-12T15:09:57.058Z,9.96
2019-03-12T15:12:27.510Z,9.90
2019-03-12T15:14:58.014Z,9.83
2019-03-12T15:17:28.466Z,9.78
2019-03-12T15:19:58.975Z,9.85
2019-03-12T15:22:29.522Z,9.88
2019-03-12T15:25:00.056Z,9.94
2019-03-12T15:27:30.561Z,9.91
2019-03-12T15:30:01.063Z,9.94
2019-03-12T15:32:31.562Z,9.83
2019-03-12T15:35:02.413Z,9.79
2019-03-12T15:37:32.910Z,9.84
2019-03-12T15:40:03.526Z,9.84
2019-03-12T15:42:33.979Z,9.86
2019-03-12T15:45:04.678Z,9.82
2019-03-12T15:47:38.786Z,9.71
2019-03-12T15:50:09.869Z,9.73
2019-03-12T15:52:39.919Z,9.72
2019-03-12T15:55:11.006Z,9.68
2019-03-12T15:57:41.545Z,9.63
2019-03-12T16:00:12.252Z,9.65
2019-03-12T16:02:42.736Z,9.69
2019-03-12T16:05:13.423Z,9.71
2019-03-12T16:07:43.913Z,9.67
2019-03-12T16:10:14.478Z,9.66
2019-03-12T16:12:44.976Z,9.57
2019-03-12T16:15:15.874Z,9.67
2019-03-12T16:17:46.318Z,9.58
2019-03-12T16:20:17.029Z,9.61
2019-03-12T16:22:47.482Z,9.53
2019-03-12T16:25:18.569Z,9.57
2019-03-12T16:27:49.159Z,9.58
2019-03-12T16:30:19.879Z,9.57
2019-03-12T16:32:50.473Z,9.54
2019-03-12T16:35:20.988Z,9.48
2019-03-12T16:37:51.443Z,8.95
2019-03-12T16:40:21.970Z,9.56
2019-03-12T16:42:52.422Z,9.55
2019-03-12T16:45:23.022Z,9.47
2019-03-12T16:47:53.631Z,9.47
2019-03-12T16:50:24.083Z,9.44
2019-03-12T16:52:54.572Z,9.46
2019-03-12T16:55:25.095Z,9.46
2019-03-12T16:57:55.563Z,9.46
2019-03-12T17:00:26.181Z,9.45
2019-03-12T17:02:56.763Z,9.45
2019-03-12T17:05:27.235Z,9.46
2019-03-12T17:07:57.720Z,9.41
2019-03-12T17:10:28.211Z,9.41
2019-03-12T17:12:58.671Z,9.35
2019-03-12T17:15:29.202Z,9.33
2019-03-12T17:17:59.658Z,9.32
2019-03-12T17:20:30.121Z,9.24
2019-03-12T17:23:00.560Z,9.33
2019-03-12T17:25:31.041Z,9.33
2019-03-12T17:28:01.529Z,9.37
2019-03-12T17:30:32.065Z,9.37
2019-03-12T17:33:02.562Z,9.41
2019-03-12T17:35:33.217Z,9.39
2019-03-12T17:38:03.674Z,9.38
2019-03-12T17:40:34.253Z,9.36
2019-03-12T17:43:04.872Z,9.42
2019-03-12T17:45:35.875Z,9.41
2019-03-12T17:48:06.680Z,9.44
2019-03-12T17:50:37.176Z,9.41
2019-03-12T17:53:07.744Z,9.44
2019-03-12T17:55:38.230Z,9.43
2019-03-12T17:58:08.716Z,9.39
2019-03-12T18:00:41.915Z,9.43
2019-03-12T18:03:12.458Z,9.40
2019-03-12T18:05:42.950Z,9.43
2019-03-12T18:08:13.398Z,9.41
2019-03-12T18:10:43.852Z,9.39
2019-03-12T18:13:14.340Z,9.34
2019-03-12T18:15:44.781Z,9.37
2019-03-12T18:18:15.261Z,9.32
2019-03-12T18:20:45.711Z,9.22
2019-03-12T18:23:16.242Z,9.20
2019-03-12T18:25:46.730Z,9.02
2019-03-12T18:28:17.185Z,9.05
2019-03-12T18:30:47.702Z,8.75
2019-03-12T18:33:18.190Z,8.83
2019-03-12T18:35:48.635Z,8.80
2019-03-12T18:38:19.134Z,8.79
2019-03-12T18:40:49.576Z,8.85
2019-03-12T18:43:20.364Z,8.90
2019-03-12T18:45:50.823Z,8.77
2019-03-12T18:48:21.319Z,8.84
2019-03-12T18:50:51.782Z,8.88
2019-03-12T18:53:22.261Z,8.92
2019-03-12T18:55:58.074Z,8.94
2019-03-12T18:58:28.551Z,8.94
2019-03-12T19:01:01.104Z,8.90
2019-03-12T19:03:31.582Z,8.91
2019-03-12T19:06:02.152Z,8.93
2019-03-12T19:08:32.695Z,8.95
2019-03-12T19:11:03.187Z,8.97
2019-03-12T19:13:33.696Z,8.94
2019-03-12T19:16:04.377Z,8.92
2019-03-12T19:18:34.931Z,8.94
2019-03-12T19:21:05.520Z,8.96
2019-03-12T19:23:35.983Z,8.94
2019-03-12T19:26:07.602Z,8.94
2019-03-12T19:28:38.087Z,8.94
2019-03-12T19:31:33.421Z,8.95
2019-03-12T19:34:08.286Z,8.76
2019-03-12T19:36:38.750Z,8.83
2019-03-12T19:39:11.568Z,8.85
2019-03-12T19:41:42.067Z,8.85
2019-03-12T19:44:12.514Z,8.86
2019-03-12T19:46:43.115Z,8.82
2019-03-12T19:49:13.813Z,8.80
2019-03-12T19:51:44.276Z,8.78
2019-03-12T19:54:14.881Z,8.62
2019-03-12T19:56:45.382Z,8.50
2019-03-12T19:59:15.935Z,8.47
2019-03-12T20:01:47.536Z,8.49
2019-03-12T20:04:17.983Z,8.40
2019-03-12T20:06:48.423Z,7.65
2019-03-12T20:09:32.730Z,8.31
2019-03-12T20:12:35.466Z,8.32
2019-03-12T20:15:48.955Z,8.42
2019-03-12T20:19:15.544Z,8.47
2019-03-12T20:22:21.178Z,8.46
2019-03-12T20:25:56.623Z,8.46
2019-03-12T20:29:10.500Z,8.31
2019-03-12T20:32:35.033Z,8.40
2019-03-12T20:36:01.322Z,8.36
2019-03-12T20:39:06.907Z,8.41
2019-03-12T20:42:12.564Z,8.50
2019-03-12T20:45:26.388Z,8.51
2019-03-12T20:48:36.146Z,8.41
2019-03-12T20:51:47.306Z,8.23
2019-03-12T20:55:07.036Z,8.31
2019-03-12T20:58:23.670Z,8.28
2019-03-12T21:01:31.658Z,7.60
2019-03-12T21:05:04.483Z,8.01
2019-03-12T21:08:23.353Z,7.87
2019-03-12T21:11:30.459Z,7.94
2019-03-12T21:14:44.794Z,7.79
2019-03-12T21:17:50.472Z,7.83
2019-03-12T21:20:55.965Z,7.76
2019-03-12T21:23:55.554Z,7.81
2019-03-12T21:26:56.114Z,7.68
2019-03-12T21:29:44.048Z,7.73
2019-03-12T21:32:15.453Z,7.72
2019-03-12T21:34:46.071Z,7.62
2019-03-12T21:37:16.840Z,7.51
2019-03-12T21:39:55.043Z,7.51
2019-03-12T21:42:19.678Z,7.35
2019-03-12T21:44:50.136Z,7.44
2019-03-12T21:47:20.705Z,7.40
2019-03-12T21:49:51.188Z,7.32
2019-03-12T21:52:21.652Z,7.35
2019-03-12T21:54:52.173Z,7.39
2019-03-12T21:57:22.684Z,7.17
2019-03-12T21:59:54.428Z,7.29
2019-03-12T22:02:24.915Z,7.17
2019-03-12T22:04:55.433Z,7.23
2019-03-12T22:07:25.914Z,7.15
2019-03-12T22:09:56.402Z,7.06
2019-03-12T22:12:26.909Z,7.00
2019-03-12T22:14:57.392Z,6.96
2019-03-12T22:17:27.961Z,6.98
2019-03-12T22:19:58.423Z,6.98
2019-03-12T22:22:56.922Z,7.01
2019-03-12T22:25:27.519Z,6.96
2019-03-12T22:27:58.048Z,7.02
2019-03-12T22:30:28.978Z,6.94
2019-03-12T22:32:59.574Z,6.90
2019-03-12T22:35:30.371Z,6.93
2019-03-12T22:38:02.267Z,6.77
2019-03-12T22:40:32.731Z,6.74
2019-03-12T22:43:03.205Z,6.83
2019-03-12T22:45:33.717Z,6.82
2019-03-12T22:48:04.298Z,6.76
2019-03-12T22:50:34.818Z,6.79
2019-03-12T22:53:05.290Z,6.85
2019-03-12T22:55:36.528Z,6.74
2019-03-12T22:58:06.999Z,6.56
2019-03-12T23:00:41.471Z,6.63
2019-03-12T23:03:12.140Z,6.64
2019-03-12T23:05:42.752Z,6.67
2019-03-12T23:08:13.597Z,6.60
2019-03-12T23:10:44.102Z,6.60
2019-03-12T23:13:14.931Z,6.63
2019-03-12T23:15:45.395Z,6.68
2019-03-12T23:18:15.877Z,6.72
2019-03-12T23:20:46.599Z,6.75
2019-03-12T23:23:17.187Z,6.82
2019-03-12T23:25:47.766Z,6.77
2019-03-12T23:28:18.293Z,6.65
2019-03-12T23:30:48.826Z,6.76
2019-03-12T23:33:19.478Z,6.80
2019-03-12T23:35:50.058Z,6.85
2019-03-12T23:38:20.644Z,6.97
2019-03-12T23:40:51.151Z,6.83
2019-03-12T23:43:21.853Z,6.92
2019-03-12T23:45:52.298Z,6.94
2019-03-12T23:48:23.014Z,6.93
2019-03-12T23:50:53.676Z,7.07
2019-03-12T23:53:24.115Z,7.04
2019-03-12T23:55:54.715Z,7.02
2019-03-12T23:58:30.616Z,7.08
